createdAt,value
2018-06-12T00:00:49.769Z,98234.05
2018-06-12T00:03:18.101Z,98233.70
2018-06-12T00:05:46.571Z,98236.28
2018-06-12T00:08:15.582Z,98238.64
2018-06-12T00:10:43.849Z,98233.72
2018-06-12T00:13:12.186Z,98240.19
2018-06-12T00:15:40.616Z,98243.30
2018-06-12T00:18:09.853Z,98240.28
2018-06-12T00:20:38.841Z,98238.55
2018-06-12T00:23:07.213Z,98243.04
2018-06-12T00:25:35.517Z,98256.85
2018-06-12T00:28:03.936Z,98255.92
2018-06-12T00:30:32.462Z,98254.15
2018-06-12T00:33:00.846Z,98257.97
2018-06-12T00:35:29.105Z,98252.67
2018-06-12T00:37:57.440Z,98255.52
2018-06-12T00:40:25.800Z,98260.88
2018-06-12T00:42:55.426Z,98264.46
2018-06-12T00:45:23.821Z,98266.34
2018-06-12T00:47:52.657Z,98264.99
2018-06-12T00:50:21.126Z,98271.52
2018-06-12T00:52:49.478Z,98275.23
2018-06-12T00:55:17.885Z,98259.97
2018-06-12T00:57:46.218Z,98273.75
2018-06-12T01:00:14.733Z,98269.56
2018-06-12T01:02:43.150Z,98268.73
2018-06-12T01:05:11.607Z,98273.94
2018-06-12T01:07:39.973Z,98263.81
2018-06-12T01:10:09.677Z,98268.80
2018-06-12T01:12:38.075Z,98266.50
2018-06-12T01:15:06.434Z,98270.33
2018-06-12T01:17:34.755Z,98269.30
2018-06-12T01:20:03.753Z,98268.80
2018-06-12T01:22:32.114Z,98272.33
2018-06-12T01:25:00.435Z,98275.55
2018-06-12T01:27:29.527Z,98267.20
2018-06-12T01:29:58.068Z,98263.25
2018-06-12T01:32:26.531Z,98265.41
2018-06-12T01:34:54.870Z,98270.27
2018-06-12T01:37:23.682Z,98274.30
2018-06-12T01:39:53.952Z,98265.44
2018-06-12T01:42:22.354Z,98269.31
2018-06-12T01:44:50.809Z,98260.28
2018-06-12T01:47:19.687Z,98261.88
2018-06-12T01:49:48.006Z,98266.90
2018-06-12T01:52:16.443Z,98266.91
2018-06-12T01:54:44.865Z,98268.20
2018-06-12T01:57:13.187Z,98276.27
2018-06-12T01:59:41.702Z,98272.98
2018-06-12T02:02:11.046Z,98274.42
2018-06-12T02:04:40.374Z,98288.47
2018-06-12T02:07:08.741Z,98288.66
2018-06-12T02:19:23.987Z,98302.32
2018-06-12T02:21:52.293Z,98304.69
2018-06-12T02:24:20.532Z,98308.09
2018-06-12T02:26:48.826Z,98312.09
2018-06-12T02:29:17.085Z,98302.39
2018-06-12T02:31:45.461Z,98304.64
2018-06-12T02:34:13.893Z,98311.86
2018-06-12T02:36:42.262Z,98309.40
2018-06-12T02:39:10.560Z,98313.35
2018-06-12T02:41:40.066Z,98314.19
2018-06-12T02:44:08.976Z,98320.67
2018-06-12T02:46:38.073Z,98323.03
2018-06-12T02:49:08.132Z,98320.81
2018-06-12T02:51:36.509Z,98325.31
2018-06-12T02:54:04.954Z,98328.76
2018-06-12T02:56:33.302Z,98337.63
2018-06-12T02:59:01.571Z,98332.33
2018-06-12T03:01:30.015Z,98329.72
2018-06-12T03:03:58.396Z,98330.06
2018-06-12T03:06:27.639Z,98328.45
2018-06-12T03:08:56.009Z,98327.53
2018-06-12T03:11:30.306Z,98335.34
2018-06-12T03:13:58.982Z,98335.69
2018-06-12T03:16:27.483Z,98331.05
2018-06-12T03:18:56.329Z,98340.89
2018-06-12T03:21:30.793Z,98339.32
2018-06-12T03:23:59.377Z,98339.90
2018-06-12T03:26:27.997Z,98336.53
2018-06-12T03:28:57.612Z,98327.91
2018-06-12T03:31:26.633Z,98331.91
2018-06-12T03:33:55.023Z,98336.86
2018-06-12T03:36:24.362Z,98335.59
2018-06-12T03:38:52.654Z,98333.67
2018-06-12T03:41:22.408Z,98334.33
2018-06-12T03:43:50.681Z,98340.50
2018-06-12T03:46:19.012Z,98336.55
2018-06-12T03:48:48.154Z,98332.03
2018-06-12T03:51:17.189Z,98341.91
2018-06-12T03:53:45.550Z,98334.38
2018-06-12T03:56:13.844Z,98337.02
2018-06-12T03:58:42.763Z,98332.83
2018-06-12T04:01:11.373Z,98335.82
2018-06-12T04:03:40.141Z,98340.80
2018-06-12T04:06:08.753Z,98344.63
2018-06-12T04:08:37.064Z,98339.37
2018-06-12T04:11:06.054Z,98334.17
2018-06-12T04:13:34.569Z,98350.39
2018-06-12T04:16:04.984Z,98346.94
2018-06-12T04:18:33.970Z,98351.62
2018-06-12T04:21:02.995Z,98348.63
2018-06-12T04:23:31.390Z,98357.84
2018-06-12T04:26:07.029Z,98345.77
2018-06-12T04:28:43.786Z,98350.79
2018-06-12T04:31:12.128Z,98351.63
2018-06-12T04:33:40.605Z,98356.17
2018-06-12T04:36:09.142Z,98352.39
2018-06-12T04:38:37.651Z,98352.00
2018-06-12T04:41:07.126Z,98358.33
2018-06-12T04:43:35.466Z,98354.28
2018-06-12T04:46:03.902Z,98353.48
2018-06-12T04:48:32.754Z,98363.52
2018-06-12T04:51:01.712Z,98378.48
2018-06-12T04:53:30.037Z,98378.95
2018-06-12T04:55:58.367Z,98382.63
2018-06-12T04:58:26.678Z,98379.28
2018-06-12T05:00:55.737Z,98379.45
2018-06-12T05:03:24.069Z,98385.98
2018-06-12T05:05:52.511Z,98387.03
2018-06-12T05:08:20.817Z,98390.37
2018-06-12T05:10:49.119Z,98391.54
2018-06-12T05:13:17.457Z,98375.62
2018-06-12T05:15:45.810Z,98374.77
2018-06-12T05:18:14.189Z,98367.06
2018-06-12T05:20:43.392Z,98359.30
2018-06-12T05:23:11.833Z,98368.38
2018-06-12T05:25:40.289Z,98374.61
2018-06-12T05:28:11.741Z,98367.08
2018-06-12T05:30:46.925Z,98376.20
2018-06-12T05:33:17.689Z,98376.02
2018-06-12T05:35:49.902Z,98375.14
2018-06-12T05:38:19.661Z,98370.37
2018-06-12T05:40:49.210Z,98381.94
2018-06-12T05:43:22.191Z,98384.59
2018-06-12T05:45:52.356Z,98382.52
2018-06-12T05:48:21.018Z,98384.78
2018-06-12T05:53:40.896Z,98385.80
2018-06-12T05:56:13.399Z,98386.43
2018-06-12T05:58:43.105Z,98389.98
2018-06-12T06:01:17.677Z,98394.16
2018-06-12T06:03:50.380Z,98399.19
2018-06-12T06:06:19.391Z,98390.84
2018-06-12T06:08:49.146Z,98387.50
2018-06-12T06:11:19.448Z,98397.41
2018-06-12T06:13:49.050Z,98397.37
2018-06-12T06:16:17.568Z,98385.04
2018-06-12T06:18:46.173Z,98389.96
2018-06-12T06:21:14.663Z,98391.17
2018-06-12T06:23:43.267Z,98396.41
2018-06-12T06:26:12.498Z,98403.59
2018-06-12T06:28:42.561Z,98400.27
2018-06-12T06:31:11.247Z,98404.70
2018-06-12T06:33:41.089Z,98397.20
2018-06-12T06:36:10.797Z,98402.07
2018-06-12T06:38:40.894Z,98387.67
2018-06-12T06:41:10.090Z,98397.08
2018-06-12T06:43:39.758Z,98386.31
2018-06-12T06:46:10.631Z,98395.71
2018-06-12T06:48:39.478Z,98393.86
2018-06-12T06:51:08.346Z,98388.08
2018-06-12T06:53:36.783Z,98390.66
2018-06-12T06:56:05.171Z,98390.63
2018-06-12T06:58:33.561Z,98391.47
2018-06-12T07:01:02.886Z,98392.27
2018-06-12T07:03:31.589Z,98390.11
2018-06-12T07:06:00.631Z,98392.13
2018-06-12T07:08:29.797Z,98397.67
2018-06-12T07:10:58.451Z,98389.54
2018-06-12T07:13:27.836Z,98396.09
2018-06-12T07:15:57.247Z,98399.91
2018-06-12T07:18:26.145Z,98402.88
2018-06-12T07:21:05.961Z,98396.16
2018-06-12T07:23:35.257Z,98400.69
2018-06-12T07:26:04.080Z,98405.81
2018-06-12T07:28:33.822Z,98397.02
2018-06-12T07:31:02.462Z,98408.05
2018-06-12T07:33:31.157Z,98415.38
2018-06-12T07:36:02.422Z,98406.63
2018-06-12T07:38:30.914Z,98406.95
2018-06-12T07:40:59.276Z,98407.20
2018-06-12T07:43:27.823Z,98415.03
2018-06-12T07:45:56.420Z,98413.56
2018-06-12T07:48:24.920Z,98409.52
2018-06-12T07:50:53.420Z,98411.67
2018-06-12T07:53:22.415Z,98409.92
2018-06-12T07:55:51.561Z,98396.88
2018-06-12T07:58:19.899Z,98399.34
2018-06-12T08:00:48.512Z,98405.90
2018-06-12T08:03:16.910Z,98407.30
2018-06-12T08:05:45.433Z,98399.75
2018-06-12T08:08:13.872Z,98406.66
2018-06-12T08:10:42.245Z,98400.52
2018-06-12T08:13:10.587Z,98403.20
2018-06-12T08:15:39.294Z,98405.44
2018-06-12T08:18:07.810Z,98417.41
2018-06-12T08:20:36.948Z,98409.13
2018-06-12T08:23:05.441Z,98412.02
2018-06-12T08:25:36.965Z,98412.20
2018-06-12T08:28:05.982Z,98411.20
2018-06-12T08:30:35.207Z,98408.15
2018-06-12T08:33:03.655Z,98406.45
2018-06-12T08:35:32.197Z,98401.94
2018-06-12T08:38:00.624Z,98400.23
2018-06-12T08:40:29.263Z,98400.08
2018-06-12T08:42:57.950Z,98400.75
2018-06-12T08:45:26.268Z,98410.94
2018-06-12T08:47:55.494Z,98401.29
2018-06-12T08:50:24.393Z,98406.35
2018-06-12T08:52:52.816Z,98403.58
2018-06-12T08:55:22.617Z,98397.80
2018-06-12T08:57:51.017Z,98392.81
2018-06-12T09:00:19.409Z,98394.71
2018-06-12T09:02:47.830Z,98401.07
2018-06-12T09:05:17.601Z,98389.22
2018-06-12T09:07:46.002Z,98396.66
2018-06-12T09:10:16.480Z,98396.83
2018-06-12T09:12:45.127Z,98396.04
2018-06-12T09:15:13.578Z,98398.59
2018-06-12T09:17:42.711Z,98403.25
2018-06-12T09:20:11.422Z,98396.92
2018-06-12T09:22:40.053Z,98403.32
2018-06-12T09:25:08.593Z,98401.23
2018-06-12T09:27:42.326Z,98403.19
2018-06-12T09:30:10.638Z,98408.27
2018-06-12T09:32:39.133Z,98395.42
2018-06-12T09:35:07.729Z,98408.30
2018-06-12T09:37:37.472Z,98409.50
2018-06-12T09:40:05.867Z,98404.94
2018-06-12T09:42:34.391Z,98407.65
2018-06-12T09:45:03.741Z,98406.99
2018-06-12T09:47:32.691Z,98409.44
2018-06-12T09:50:01.091Z,98409.09
2018-06-12T09:52:29.609Z,98416.85
2018-06-12T09:54:57.922Z,98416.25
2018-06-12T09:57:26.414Z,98415.14
2018-06-12T09:59:54.783Z,98422.09
2018-06-12T10:02:23.410Z,98424.46
2018-06-12T10:04:54.565Z,98420.86
2018-06-12T10:07:23.777Z,98428.83
2018-06-12T10:09:52.313Z,98418.16
2018-06-12T10:12:21.749Z,98422.06
2018-06-12T10:14:50.106Z,98425.92
2018-06-12T10:17:18.660Z,98428.98
2018-06-12T10:19:46.934Z,98420.47
2018-06-12T10:22:15.381Z,98420.73
2018-06-12T10:24:44.347Z,98422.09
2018-06-12T10:27:13.418Z,98420.16
2018-06-12T10:29:42.054Z,98420.45
2018-06-12T10:32:11.650Z,98417.71
2018-06-12T10:34:48.968Z,98413.73
2018-06-12T10:37:24.237Z,98416.56
2018-06-12T10:39:53.746Z,98412.77
2018-06-12T10:42:22.102Z,98414.75
2018-06-12T10:44:50.410Z,98414.22
2018-06-12T10:47:18.951Z,98416.61
2018-06-12T10:49:47.393Z,98418.92
2018-06-12T10:52:15.840Z,98416.92
2018-06-12T10:54:44.154Z,98402.47
2018-06-12T10:57:13.150Z,98413.22
2018-06-12T10:59:41.447Z,98407.23
2018-06-12T11:02:09.859Z,98418.14
2018-06-12T11:04:38.166Z,98410.69
2018-06-12T11:07:06.625Z,98410.78
2018-06-12T11:09:35.679Z,98413.90
2018-06-12T11:12:04.694Z,98415.89
2018-06-12T11:14:33.036Z,98406.33
2018-06-12T11:17:02.259Z,98411.20
2018-06-12T11:19:32.568Z,98414.73
2018-06-12T11:22:02.282Z,98417.45
2018-06-12T11:24:30.726Z,98408.05
2018-06-12T11:26:59.384Z,98416.88
2018-06-12T11:29:27.903Z,98409.56
2018-06-12T11:31:56.474Z,98421.47
2018-06-12T11:34:25.085Z,98412.51
2018-06-12T11:36:53.483Z,98402.11
2018-06-12T11:39:21.841Z,98407.17
2018-06-12T11:41:50.408Z,98407.56
2018-06-12T11:44:18.756Z,98411.71
2018-06-12T11:46:47.105Z,98413.16
2018-06-12T11:49:15.770Z,98409.27
2018-06-12T11:51:44.062Z,98405.38
2018-06-12T11:54:12.885Z,98416.72
2018-06-12T11:56:41.250Z,98408.48
2018-06-12T11:59:09.652Z,98406.28
2018-06-12T12:01:37.979Z,98405.67
2018-06-12T12:04:06.345Z,98404.71
2018-06-12T12:06:34.910Z,98410.59
2018-06-12T12:09:03.334Z,98400.20
2018-06-12T12:11:36.021Z,98406.73
2018-06-12T12:14:05.845Z,98416.16
2018-06-12T12:16:35.218Z,98412.11
2018-06-12T12:19:03.736Z,98406.98
2018-06-12T12:21:32.878Z,98410.05
2018-06-12T12:24:01.315Z,98411.84
2018-06-12T12:26:29.926Z,98409.22
2018-06-12T12:28:58.392Z,98407.80
2018-06-12T12:31:27.252Z,98413.30
2018-06-12T12:33:57.854Z,98405.88
2018-06-12T12:36:26.243Z,98408.27
2018-06-12T12:38:56.870Z,98411.08
2018-06-12T12:41:36.330Z,98401.05
2018-06-12T12:44:04.722Z,98399.41
2018-06-12T12:46:33.146Z,98391.69
2018-06-12T12:49:01.652Z,98381.30
2018-06-12T12:51:29.974Z,98384.25
2018-06-12T12:53:58.326Z,98380.33
2018-06-12T12:56:27.327Z,98388.36
2018-06-12T12:58:56.340Z,98372.09
2018-06-12T13:01:24.625Z,98368.72
2018-06-12T13:03:52.990Z,98382.58
2018-06-12T13:06:22.749Z,98379.80
2018-06-12T13:08:51.621Z,98377.91
2018-06-12T13:11:20.374Z,98374.39
2018-06-12T13:13:48.638Z,98370.11
2018-06-12T13:16:17.837Z,98363.45
2018-06-12T13:18:46.962Z,98369.50
2018-06-12T13:21:15.255Z,98365.39
2018-06-12T13:23:44.287Z,98361.08
2018-06-12T13:26:12.647Z,98360.34
2018-06-12T13:28:41.968Z,98363.00
2018-06-12T13:31:11.372Z,98359.11
2018-06-12T13:33:39.794Z,98362.30
2018-06-12T13:36:09.059Z,98360.95
2018-06-12T13:38:38.602Z,98363.58
2018-06-12T13:41:07.160Z,98352.34
2018-06-12T13:43:36.353Z,98343.01
2018-06-12T13:46:04.618Z,98345.23
2018-06-12T13:48:33.006Z,98351.16
2018-06-12T13:51:01.447Z,98344.74
2018-06-12T13:53:30.390Z,98346.39
2018-06-12T13:55:58.653Z,98348.80
2018-06-12T13:58:27.675Z,98346.79
2018-06-12T14:00:57.112Z,98343.14
2018-06-12T14:03:25.736Z,98333.19
2018-06-12T14:05:54.030Z,98342.72
2018-06-12T14:08:35.019Z,98342.45
2018-06-12T14:11:25.905Z,98339.39
2018-06-12T14:16:49.484Z,98340.59
2018-06-12T14:19:29.061Z,98327.35
2018-06-12T14:25:13.059Z,98342.48
2018-06-12T14:28:10.019Z,98340.52
2018-06-12T14:31:29.035Z,98336.20
2018-06-12T14:34:06.220Z,98332.52
2018-06-12T14:42:34.444Z,98336.54
2018-06-12T14:45:32.056Z,98342.05
2018-06-12T14:51:39.375Z,98341.82
2018-06-12T15:12:54.068Z,98361.59
2018-06-12T15:18:38.875Z,98345.13
2018-06-12T15:21:33.429Z,98342.48
2018-06-12T15:27:55.590Z,98335.56
2018-06-12T15:30:49.977Z,98338.48
2018-06-12T15:33:29.298Z,98345.27
2018-06-12T15:36:11.243Z,98340.76
2018-06-12T15:42:05.287Z,98338.81
2018-06-12T15:44:51.487Z,98327.02
2018-06-12T15:50:18.777Z,98325.79
2018-06-12T15:56:05.924Z,98329.06
2018-06-12T15:58:49.115Z,98332.63
2018-06-12T16:01:36.589Z,98328.72
2018-06-12T16:04:12.008Z,98329.59
2018-06-12T16:06:49.684Z,98328.33
2018-06-12T16:09:34.494Z,98330.16
2018-06-12T16:12:53.541Z,98324.69
2018-06-12T16:15:45.366Z,98324.45
2018-06-12T16:21:24.728Z,98325.70
2018-06-12T16:24:11.843Z,98320.95
2018-06-12T16:26:53.119Z,98320.58
2018-06-12T16:32:46.324Z,98325.58
2018-06-12T16:35:41.051Z,98325.87
2018-06-12T16:45:20.493Z,98330.92
2018-06-12T17:08:35.096Z,98327.30
2018-06-12T17:20:40.951Z,98323.00
2018-06-12T17:31:40.189Z,98307.46
2018-06-12T17:34:09.823Z,98302.22
2018-06-12T17:36:40.130Z,98304.59
2018-06-12T17:39:09.720Z,98303.27
2018-06-12T17:41:39.342Z,98308.09
2018-06-12T17:44:10.034Z,98314.05
2018-06-12T17:46:39.745Z,98304.20
2018-06-12T17:49:16.023Z,98310.72
2018-06-12T17:51:47.544Z,98306.14
2018-06-12T17:54:19.199Z,98302.50
2018-06-12T17:57:01.029Z,98310.28
2018-06-12T17:59:33.112Z,98309.20
2018-06-12T18:02:04.096Z,98321.29
2018-06-12T18:04:36.253Z,98315.94
2018-06-12T18:07:13.378Z,98318.92
2018-06-12T18:09:46.284Z,98315.97
2018-06-12T18:12:16.987Z,98322.61
2018-06-12T18:14:49.508Z,98310.04
2018-06-12T18:17:51.488Z,98312.58
2018-06-12T18:20:21.750Z,98313.12
2018-06-12T18:22:52.029Z,98310.80
2018-06-12T18:25:22.159Z,98307.16
2018-06-12T18:27:54.890Z,98318.23
2018-06-12T18:30:24.990Z,98312.19
2018-06-12T18:32:54.590Z,98309.81
2018-06-12T18:35:24.266Z,98314.03
2018-06-12T18:37:54.443Z,98322.12
2018-06-12T18:40:23.968Z,98319.87
2018-06-12T18:42:53.554Z,98319.61
2018-06-12T18:45:22.782Z,98323.66
2018-06-12T18:47:52.719Z,98323.79
2018-06-12T18:50:22.044Z,98327.51
2018-06-12T18:52:51.876Z,98326.47
2018-06-12T18:55:21.137Z,98331.93
2018-06-12T18:57:51.285Z,98333.34
2018-06-12T19:00:20.841Z,98327.55
2018-06-12T19:02:50.394Z,98338.00
2018-06-12T19:05:19.994Z,98334.16
2018-06-12T19:07:49.654Z,98332.27
2018-06-12T19:10:20.577Z,98335.91
2018-06-12T19:12:51.126Z,98336.89
2018-06-12T19:15:22.809Z,98341.29
2018-06-12T19:17:52.052Z,98347.00
2018-06-12T19:20:22.665Z,98347.66
2018-06-12T19:22:52.684Z,98345.80
2018-06-12T19:25:23.190Z,98341.70
2018-06-12T19:27:57.505Z,98349.59
2018-06-12T19:30:27.233Z,98350.86
2018-06-12T19:32:57.932Z,98351.50
2018-06-12T19:35:27.606Z,98352.84
2018-06-12T19:37:58.975Z,98352.02
2018-06-12T19:40:28.746Z,98357.16
2018-06-12T19:42:58.768Z,98353.81
2018-06-12T19:45:29.603Z,98356.75
2018-06-12T19:47:58.232Z,98356.11
2018-06-12T19:50:27.114Z,98356.14
2018-06-12T19:52:55.679Z,98361.45
2018-06-12T19:55:24.381Z,98364.72
2018-06-12T19:57:52.754Z,98357.86
2018-06-12T20:00:21.330Z,98362.47
2018-06-12T20:02:49.615Z,98363.48
2018-06-12T20:05:17.970Z,98369.38
2018-06-12T20:07:52.818Z,98371.66
2018-06-12T20:10:21.201Z,98371.64
2018-06-12T20:12:49.519Z,98377.52
2018-06-12T20:15:19.709Z,98382.54
2018-06-12T20:17:49.111Z,98391.58
2018-06-12T20:20:19.216Z,98392.69
2018-06-12T20:22:48.956Z,98393.66
2018-06-12T20:25:19.657Z,98396.68
2018-06-12T20:27:49.348Z,98407.14
2018-06-12T20:30:19.079Z,98405.19
2018-06-12T20:32:48.597Z,98405.80
2018-06-12T20:35:18.343Z,98411.22
2018-06-12T20:37:48.548Z,98414.56
2018-06-12T20:40:18.638Z,98423.06
2018-06-12T20:42:48.555Z,98419.11
2018-06-12T20:45:20.889Z,98414.88
2018-06-12T20:47:50.081Z,98412.84
2018-06-12T20:50:20.032Z,98418.88
2018-06-12T20:52:57.145Z,98420.36
2018-06-12T20:55:37.289Z,98415.86
2018-06-12T20:58:11.498Z,98422.20
2018-06-12T21:00:45.797Z,98423.55
2018-06-12T21:03:16.080Z,98427.91
2018-06-12T21:05:50.941Z,98426.75
2018-06-12T21:08:24.271Z,98429.16
2018-06-12T21:10:54.211Z,98437.13
2018-06-12T21:13:24.103Z,98435.77
2018-06-12T21:15:53.632Z,98437.81
2018-06-12T21:18:23.722Z,98443.26
2018-06-12T21:20:52.987Z,98436.61
2018-06-12T21:23:22.655Z,98436.61
2018-06-12T21:25:52.006Z,98445.19
2018-06-12T21:28:21.445Z,98437.12
2018-06-12T21:30:50.956Z,98438.72
2018-06-12T21:33:20.433Z,98434.03
2018-06-12T21:35:49.578Z,98441.55
2018-06-12T21:38:19.011Z,98443.66
2018-06-12T21:40:48.390Z,98445.47
2018-06-12T21:43:17.799Z,98449.72
2018-06-12T21:45:47.258Z,98449.15
2018-06-12T21:48:16.861Z,98456.53
2018-06-12T21:50:46.435Z,98452.82
2018-06-12T21:53:15.780Z,98453.00
2018-06-12T21:55:45.074Z,98443.80
2018-06-12T21:58:14.540Z,98446.67
2018-06-12T22:00:43.722Z,98441.59
2018-06-12T22:03:13.198Z,98449.33
2018-06-12T22:05:43.295Z,98438.57
2018-06-12T22:08:13.196Z,98433.44
2018-06-12T22:10:43.054Z,98437.02
2018-06-12T22:13:12.745Z,98433.97
2018-06-12T22:15:42.860Z,98439.47
2018-06-12T22:18:12.448Z,98426.68
2018-06-12T22:20:42.015Z,98426.20
2018-06-12T22:23:12.267Z,98431.64
2018-06-12T22:25:42.187Z,98426.14
2018-06-12T22:28:13.401Z,98429.02
2018-06-12T22:30:43.562Z,98434.89
2018-06-12T22:33:13.459Z,98437.03
2018-06-12T22:35:43.314Z,98440.22
2018-06-12T22:38:16.975Z,98444.58
2018-06-12T22:40:46.983Z,98444.42
2018-06-12T22:43:16.976Z,98439.58
2018-06-12T22:45:47.583Z,98443.61
2018-06-12T22:48:17.260Z,98435.55
2018-06-12T22:50:47.366Z,98440.09
2018-06-12T22:53:17.171Z,98441.75
2018-06-12T22:55:46.940Z,98441.78
2018-06-12T22:58:17.023Z,98448.19
2018-06-12T23:00:46.387Z,98452.91
2018-06-12T23:03:16.682Z,98447.87
2018-06-12T23:05:46.171Z,98451.23
2018-06-12T23:08:16.381Z,98446.50
2018-06-12T23:10:46.009Z,98444.82
2018-06-12T23:13:15.562Z,98447.18
2018-06-12T23:15:45.157Z,98454.14
2018-06-12T23:18:14.932Z,98450.55
2018-06-12T23:21:58.266Z,98455.44
2018-06-12T23:24:28.805Z,98448.28
2018-06-12T23:26:58.325Z,98451.78
2018-06-12T23:29:28.199Z,98454.91
2018-06-12T23:31:57.914Z,98458.16
2018-06-12T23:34:27.405Z,98454.64
2018-06-12T23:36:57.163Z,98458.16
2018-06-12T23:39:27.584Z,98462.06
2018-06-12T23:41:56.994Z,98455.69
2018-06-12T23:44:27.203Z,98460.90
2018-06-12T23:46:56.798Z,98456.06
2018-06-12T23:49:26.227Z,98462.75
2018-06-12T23:51:55.885Z,98459.73
2018-06-12T23:54:25.433Z,98465.78
2018-06-12T23:56:55.017Z,98468.13
2018-06-12T23:59:24.416Z,98461.75
